Time;durP1;ratioP1;P1;durP2;ratioP2;P2;SDS_P1;SDS_P2;PMS_P1;PMS_P2;Temp;Humidity;BMP_temperature;BMP_pressure;BME280_temperature;BME280_humidity;BME280_pressure;Samples;Min_cycle;Max_cycle;Signal;HPM_P1;HPM_P2
2021/12/12 00:01:38;;;;;;;19.85;6.55;;;;;;;1.17;100.00;99659.91;5060089;28;20032;-71
2021/12/12 00:04:12;;;;;;;17.85;5.68;;;;;;;1.18;100.00;99666.06;5065140;28;20119;-71
2021/12/12 00:06:43;;;;;;;16.00;5.18;;;;;;;1.12;100.00;99666.56;5071499;28;20137;-71
2021/12/12 00:09:16;;;;;;;19.80;5.50;;;;;;;0.99;100.00;99670.22;5068749;28;20628;-71
2021/12/12 00:11:43;;;;;;;12.18;4.70;;;;;;;0.90;100.00;99681.59;5061362;28;20039;-71
2021/12/12 00:14:15;;;;;;;18.45;4.70;;;;;;;0.80;100.00;99680.63;5071085;28;20125;-71
2021/12/12 00:16:43;;;;;;;11.40;4.30;;;;;;;0.71;100.00;99686.66;5062520;28;20028;-72
2021/12/12 00:19:09;;;;;;;10.48;4.55;;;;;;;0.66;100.00;99681.69;5059891;28;20017;-72
2021/12/12 00:21:36;;;;;;;10.55;4.25;;;;;;;0.63;100.00;99679.28;5051728;28;20375;-71
2021/12/12 00:24:04;;;;;;;11.20;3.80;;;;;;;0.51;100.00;99680.22;5069118;28;20036;-71
2021/12/12 00:26:30;;;;;;;8.77;4.33;;;;;;;0.39;100.00;99681.97;5066443;28;20060;-69
2021/12/12 00:28:55;;;;;;;14.27;4.85;;;;;;;0.33;100.00;99685.13;5070035;28;20070;-70
2021/12/12 00:31:22;;;;;;;17.65;5.20;;;;;;;0.43;100.00;99689.63;5072873;28;20591;-70
2021/12/12 00:33:53;;;;;;;17.98;6.20;;;;;;;0.36;100.00;99691.06;5067351;28;20116;-68
2021/12/12 00:36:19;;;;;;;18.80;5.32;;;;;;;0.38;100.00;99702.44;5067419;28;20024;-69
2021/12/12 00:38:54;;;;;;;13.75;5.30;;;;;;;0.39;100.00;99698.81;5068524;28;20500;-68
2021/12/12 00:41:34;;;;;;;9.98;5.15;;;;;;;0.31;100.00;99690.56;5072515;28;20024;-69
2021/12/12 00:44:01;;;;;;;14.52;5.40;;;;;;;0.41;100.00;99702.19;5064029;28;20044;-69
2021/12/12 00:46:27;;;;;;;17.48;5.78;;;;;;;0.43;100.00;99707.41;5072564;28;20070;-68
2021/12/12 00:48:54;;;;;;;13.02;6.63;;;;;;;0.14;100.00;99670.53;5068258;28;20115;-69
2021/12/12 00:51:27;;;;;;;13.98;5.72;;;;;;;0.33;100.00;99704.59;5071394;28;20028;-69
2021/12/12 00:53:54;;;;;;;10.35;5.80;;;;;;;0.32;100.00;99710.06;5070878;28;20020;-69
2021/12/12 00:56:19;;;;;;;18.10;6.03;;;;;;;0.27;100.00;99713.06;5068457;28;20024;-68
2021/12/12 00:58:45;;;;;;;14.35;6.28;;;;;;;0.34;100.00;99713.44;5061000;28;20160;-68
2021/12/12 01:01:17;;;;;;;15.50;5.40;;;;;;;0.37;100.00;99710.56;5072513;28;20028;-68
2021/12/12 01:03:49;;;;;;;16.73;6.18;;;;;;;0.39;100.00;99695.28;5062316;28;20036;-68
2021/12/12 01:06:15;;;;;;;16.67;5.38;;;;;;;0.39;100.00;99690.84;5070991;28;20032;-69
2021/12/12 01:08:43;;;;;;;18.70;5.55;;;;;;;0.63;100.00;99724.56;5071687;28;20371;-71
2021/12/12 01:11:28;;;;;;;16.55;5.25;;;;;;;0.72;100.00;99725.66;5071999;28;20024;-70
2021/12/12 01:13:54;;;;;;;13.77;5.43;;;;;;;0.81;100.00;99724.91;5053195;28;20031;-68
2021/12/12 01:16:26;;;;;;;18.25;5.95;;;;;;;0.84;100.00;99725.56;5072125;28;20020;-68
2021/12/12 01:19:00;;;;;;;14.75;5.35;;;;;;;0.70;100.00;99696.47;5068548;28;20367;-68
2021/12/12 01:21:36;;;;;;;15.23;4.97;;;;;;;0.74;100.00;99700.59;5061564;28;20028;-68
2021/12/12 01:24:08;;;;;;;13.15;5.60;;;;;;;0.72;100.00;99701.69;5064824;28;20082;-68
2021/12/12 01:26:35;;;;;;;23.42;8.05;;;;;;;1.17;100.00;99729.19;5070939;28;20436;-69
2021/12/12 01:29:02;;;;;;;21.33;8.15;;;;;;;1.29;100.00;99732.72;5074007;28;20032;-68
2021/12/12 01:31:32;;;;;;;29.92;8.52;;;;;;;1.14;100.00;99737.44;5072045;28;20040;-69
2021/12/12 01:34:13;;;;;;;20.88;7.65;;;;;;;1.21;100.00;99738.66;5060114;28;20058;-69
2021/12/12 01:39:36;;;;;;;21.80;6.50;;;;;;;1.17;100.00;99736.34;5068570;28;20489;-69
2021/12/12 01:42:22;;;;;;;13.40;5.78;;;;;;;1.18;100.00;99736.25;5052863;28;20032;-69
2021/12/12 01:45:23;;;;;;;12.15;4.95;;;;;;;1.11;100.00;99739.50;5071103;28;20502;-68
2021/12/12 01:47:50;;;;;;;12.70;4.82;;;;;;;1.04;100.00;99731.97;5038317;28;20090;-68
2021/12/12 01:50:27;;;;;;;12.50;5.53;;;;;;;1.07;100.00;99731.75;5062472;28;20494;-68
2021/12/12 01:52:53;;;;;;;14.65;5.35;;;;;;;1.01;100.00;99726.06;5064050;28;20021;-68
2021/12/12 01:55:36;;;;;;;9.45;4.90;;;;;;;1.12;100.00;99733.19;5070883;28;20082;-68
2021/12/12 01:58:07;;;;;;;9.77;4.95;;;;;;;1.14;100.00;99737.44;5062002;28;20032;-68
2021/12/12 02:00:38;;;;;;;12.43;5.03;;;;;;;1.26;100.00;99736.50;5056578;28;20020;-68
2021/12/12 02:03:08;;;;;;;16.50;4.70;;;;;;;1.24;100.00;99742.91;5062389;28;20036;-68
2021/12/12 02:05:36;;;;;;;11.57;4.40;;;;;;;1.12;100.00;99709.22;5062810;28;20090;-70
2021/12/12 02:08:06;;;;;;;14.65;4.90;;;;;;;1.25;100.00;99742.78;5069537;28;20031;-68
2021/12/12 02:13:57;;;;;;;11.60;5.25;;;;;;;1.19;100.00;99707.78;5065382;28;20077;-68
2021/12/12 02:16:25;;;;;;;11.85;4.45;;;;;;;1.37;100.00;99751.63;5066565;28;20029;-69
2021/12/12 02:18:55;;;;;;;7.95;4.35;;;;;;;1.26;100.00;99740.97;5072784;28;20035;-68
2021/12/12 02:21:29;;;;;;;;;;;;;;;1.35;100.00;99772.22;5069122;28;20032;-68
2021/12/12 02:37:25;;;;;;;10.70;4.13;;;;;;;1.60;96.71;99773.81;5077244;28;20078;-68
2021/12/12 02:39:50;;;;;;;10.52;3.83;;;;;;;1.63;96.68;99764.72;5073617;28;20108;-68
2021/12/12 02:42:18;;;;;;;8.63;3.33;;;;;;;1.70;95.46;99757.91;5073773;28;20025;-68
2021/12/12 02:44:45;;;;;;;5.60;3.10;;;;;;;1.70;94.95;99761.44;5056089;28;20455;-69
2021/12/12 02:47:19;;;;;;;8.98;3.30;;;;;;;1.66;95.25;99753.81;5067232;28;20047;-69
2021/12/12 02:52:36;;;;;;;5.75;3.08;;;;;;;1.74;94.17;99762.88;5072433;28;20039;-68
2021/12/12 02:55:10;;;;;;;11.10;3.97;;;;;;;1.72;95.26;99753.28;5071143;28;20028;-70
2021/12/12 02:57:36;;;;;;;8.85;3.20;;;;;;;1.57;94.50;99725.19;5074571;28;20028;-68
2021/12/12 03:00:05;;;;;;;10.93;3.25;;;;;;;1.73;94.01;99749.69;5067338;28;20098;-69
2021/12/12 03:02:31;;;;;;;;;;;;;;;1.74;93.59;99744.19;5074580;28;20476;-68
2021/12/12 03:05:00;;;;;;;6.10;3.15;;;;;;;1.66;93.98;99716.47;5072381;28;19919;-68
2021/12/12 03:07:26;;;;;;;13.35;3.28;;;;;;;1.73;93.49;99745.19;5075268;28;20401;-70
2021/12/12 03:09:56;;;;;;;10.73;3.20;;;;;;;1.72;94.06;99743.47;5072865;28;20111;-70
2021/12/12 03:12:30;;;;;;;6.55;2.90;;;;;;;1.70;93.39;99744.56;5073592;28;20043;-69
2021/12/12 03:14:58;;;;;;;6.55;3.05;;;;;;;1.68;93.78;99742.03;5065312;28;20090;-68
2021/12/12 03:17:24;;;;;;;12.05;3.58;;;;;;;1.70;94.25;99739.22;5068108;28;20029;-68
2021/12/12 03:19:57;;;;;;;11.30;3.50;;;;;;;1.65;93.47;99738.75;5065550;28;20029;-71
2021/12/12 03:22:25;;;;;;;10.00;3.17;;;;;;;1.69;93.74;99743.72;5057649;28;20024;-68
2021/12/12 03:24:50;;;;;;;7.10;3.15;;;;;;;1.74;93.80;99746.03;5072531;28;20462;-68
2021/12/12 03:27:16;;;;;;;10.48;3.40;;;;;;;1.70;94.76;99744.56;5072969;28;20033;-68
2021/12/12 03:29:45;;;;;;;8.57;2.65;;;;;;;1.57;95.07;99723.38;5067456;28;20024;-69
2021/12/12 03:32:17;;;;;;;9.88;2.95;;;;;;;1.74;93.28;99746.03;5055533;28;20020;-68
2021/12/12 03:34:48;;;;;;;7.15;3.03;;;;;;;1.75;93.63;99756.56;5073536;28;20034;-68
2021/12/12 03:37:16;;;;;;;10.25;4.25;;;;;;;1.70;92.54;99750.78;5066498;28;20020;-68
2021/12/12 03:39:45;;;;;;;7.22;2.38;;;;;;;1.70;93.29;99755.22;5081878;28;20033;-68
2021/12/12 03:42:15;;;;;;;9.75;3.05;;;;;;;1.67;91.99;99750.16;5054971;28;20041;-68
2021/12/12 03:44:41;;;;;;;13.57;2.72;;;;;;;1.61;90.36;99735.50;5071421;28;20069;-68
2021/12/12 03:47:13;;;;;;;6.00;2.38;;;;;;;1.66;88.85;99753.81;5067071;28;20029;-69
2021/12/12 03:49:39;;;;;;;7.82;1.90;;;;;;;1.43;87.79;99719.13;5076389;28;20055;-69
2021/12/12 03:52:08;;;;;;;7.20;1.90;;;;;;;1.61;88.17;99748.00;5066840;28;20122;-68
2021/12/12 03:54:34;;;;;;;5.35;1.70;;;;;;;1.66;87.62;99743.13;5055359;28;20029;-68
2021/12/12 03:56:59;;;;;;;4.10;1.75;;;;;;;1.67;87.09;99744.81;5072853;28;20375;-68
2021/12/12 03:59:25;;;;;;;5.75;1.77;;;;;;;1.71;86.20;99744.44;5072136;28;20082;-69
2021/12/12 04:01:52;;;;;;;4.65;1.73;;;;;;;1.81;85.90;99741.91;5063383;28;20037;-69
2021/12/12 04:04:36;;;;;;;7.20;1.98;;;;;;;1.84;85.26;99735.47;5071334;28;20392;-68
2021/12/12 04:07:08;;;;;;;5.85;1.65;;;;;;;1.71;85.19;99717.78;5071768;28;20034;-68
2021/12/12 04:09:33;;;;;;;4.75;1.83;;;;;;;1.86;84.75;99744.16;5072680;28;20033;-68
2021/12/12 04:12:02;;;;;;;5.07;2.42;;;;;;;1.95;86.65;99730.94;5072085;28;20031;-68
2021/12/12 04:14:28;;;;;;;6.88;2.45;;;;;;;1.84;86.84;99743.47;5070600;28;20470;-69
2021/12/12 04:16:57;;;;;;;8.70;2.80;;;;;;;1.72;87.18;99745.28;5071020;28;20054;-68
2021/12/12 04:19:23;;;;;;;6.55;2.47;;;;;;;1.65;87.24;99746.75;5068594;28;20128;-68
2021/12/12 04:21:48;;;;;;;7.60;2.45;;;;;;;1.64;87.66;99750.41;5071649;28;20478;-68
2021/12/12 04:24:33;;;;;;;5.28;2.92;;;;;;;1.58;87.73;99751.75;5071614;28;20085;-68
2021/12/12 04:26:59;;;;;;;8.60;3.88;;;;;;;1.52;88.09;99745.09;5054416;28;20529;-68
2021/12/12 04:29:36;;;;;;;7.75;2.80;;;;;;;1.57;88.35;99757.19;5059511;28;20031;-69
2021/12/12 04:32:10;;;;;;;4.82;2.30;;;;;;;1.67;88.15;99756.31;5066500;28;20170;-69
2021/12/12 04:34:38;;;;;;;8.05;2.80;;;;;;;1.72;87.44;99763.97;5064336;28;20103;-68
2021/12/12 04:37:05;;;;;;;6.38;2.45;;;;;;;1.63;87.73;99740.72;5052576;28;20032;-69
2021/12/12 04:39:37;;;;;;;6.60;2.25;;;;;;;1.75;87.71;99766.38;5083330;28;20078;-68
2021/12/12 04:42:13;;;;;;;3.78;1.95;;;;;;;1.84;86.37;99767.47;5072234;28;20025;-68
2021/12/12 04:44:40;;;;;;;7.45;2.30;;;;;;;1.81;86.85;99765.03;5066368;28;20035;-70
2021/12/12 04:50:13;;;;;;;7.45;2.25;;;;;;;1.84;87.02;99772.81;5077213;28;20036;-68
2021/12/12 04:52:41;;;;;;;2.83;1.27;;;;;;;1.83;87.56;99774.63;5064473;28;20070;-68
2021/12/12 04:55:48;;;;;;;6.95;2.22;;;;;;;1.76;87.68;99773.44;5070463;28;20020;-68
2021/12/12 04:58:19;;;;;;;4.88;2.15;;;;;;;1.78;87.40;99774.13;5006949;22;20047;-68
2021/12/12 05:00:57;;;;;;;3.58;2.00;;;;;;;1.85;87.20;99774.50;5066850;28;20166;-67
2021/12/12 05:03:30;;;;;;;7.70;1.88;;;;;;;1.79;88.30;99783.00;5067177;28;20359;-68
2021/12/12 05:06:13;;;;;;;4.40;2.05;;;;;;;1.75;88.11;99777.91;5066433;28;20024;-68
2021/12/12 05:09:17;;;;;;;3.28;2.08;;;;;;;1.71;88.74;99789.81;5061241;28;20386;-67
2021/12/12 05:11:56;;;;;;;8.63;2.28;;;;;;;1.64;89.22;99785.06;5032210;28;20410;-67
2021/12/12 05:14:26;;;;;;;5.60;2.22;;;;;;;1.55;89.71;99789.34;5065651;28;20024;-68
2021/12/12 05:17:02;;;;;;;5.07;2.35;;;;;;;1.52;89.56;99790.44;5068727;28;20040;-68
2021/12/12 05:19:29;;;;;;;8.43;2.40;;;;;;;1.63;89.84;99778.91;5068083;28;20029;-67
2021/12/12 05:22:09;;;;;;;8.15;2.83;;;;;;;1.57;89.47;99778.53;5061091;28;20060;-67
2021/12/12 05:24:37;;;;;;;6.32;2.80;;;;;;;1.55;88.85;99768.00;5069326;28;20039;-67
2021/12/12 05:27:07;;;;;;;5.68;2.50;;;;;;;1.66;88.23;99777.81;5074475;28;20020;-67
2021/12/12 05:29:38;;;;;;;7.53;2.67;;;;;;;1.69;87.82;99777.56;5065229;28;20048;-67
2021/12/12 05:32:06;;;;;;;6.70;3.00;;;;;;;1.71;87.74;99778.28;5069506;28;20020;-67
2021/12/12 05:34:34;;;;;;;5.10;2.58;;;;;;;1.71;88.50;99771.13;5067406;28;20021;-67
2021/12/12 05:37:01;;;;;;;8.03;2.40;;;;;;;1.64;87.17;99780.59;5069010;28;20017;-68
2021/12/12 05:39:27;;;;;;;6.15;2.75;;;;;;;1.58;87.41;99788.25;5065567;28;20500;-67
2021/12/12 05:41:54;;;;;;;5.93;2.58;;;;;;;1.51;88.32;99785.19;5053164;28;20028;-67
2021/12/12 05:44:21;;;;;;;8.40;2.35;;;;;;;1.41;88.05;99793.06;5070631;28;20036;-67
2021/12/12 05:46:47;;;;;;;9.38;2.72;;;;;;;1.34;89.07;99785.66;5069231;28;20117;-70
2021/12/12 05:49:13;;;;;;;3.90;2.08;;;;;;;1.28;88.88;99787.00;5071329;28;20480;-70
2021/12/12 05:51:39;;;;;;;6.63;2.45;;;;;;;1.22;88.82;99787.50;5068598;28;20571;-70
2021/12/12 05:54:05;;;;;;;5.43;1.85;;;;;;;1.18;89.52;99781.56;5072892;28;20111;-70
2021/12/12 05:56:34;;;;;;;11.65;3.17;;;;;;;1.07;89.87;99785.06;5066355;28;20393;-70
2021/12/12 05:59:00;;;;;;;6.10;1.85;;;;;;;1.03;90.75;99778.25;5063606;28;20177;-70
2021/12/12 06:01:26;;;;;;;9.20;2.80;;;;;;;0.94;91.34;99781.63;5073337;28;20115;-70
2021/12/12 06:03:53;;;;;;;5.97;2.83;;;;;;;0.96;90.83;99778.84;5064979;28;20029;-70
2021/12/12 06:06:23;;;;;;;6.13;2.95;;;;;;;0.82;92.11;99786.09;5063597;28;20374;-68
2021/12/12 06:08:49;;;;;;;7.30;2.65;;;;;;;0.79;91.86;99778.34;5073861;28;20032;-67
2021/12/12 06:11:19;;;;;;;8.80;2.20;;;;;;;0.70;91.89;99765.69;5066317;28;20496;-74
2021/12/12 06:13:46;;;;;;;8.45;2.80;;;;;;;0.74;92.10;99783.16;5069572;28;20024;-79
2021/12/12 06:16:18;;;;;;;5.82;2.28;;;;;;;0.90;91.59;99803.31;5071353;28;20017;-79
2021/12/12 06:18:45;;;;;;;7.72;2.55;;;;;;;0.89;91.67;99805.09;5078910;28;20025;-76
2021/12/12 06:21:11;;;;;;;8.70;2.63;;;;;;;0.77;92.16;99804.22;5074180;28;20039;-77
2021/12/12 06:23:36;;;;;;;4.72;2.85;;;;;;;0.69;92.35;99805.78;5070449;28;20032;-77
2021/12/12 06:26:02;;;;;;;12.13;3.20;;;;;;;0.75;92.55;99815.97;5069251;28;20047;-75
2021/12/12 06:28:31;;;;;;;4.72;2.65;;;;;;;0.73;92.77;99818.72;5073711;28;20413;-73
2021/12/12 06:30:57;;;;;;;6.95;2.75;;;;;;;0.69;93.07;99816.44;5072990;28;20035;-74
2021/12/12 06:33:23;;;;;;;5.15;2.92;;;;;;;0.62;93.50;99818.69;5075349;28;20035;-74
2021/12/12 06:35:50;;;;;;;6.57;2.88;;;;;;;0.56;93.60;99821.84;5072572;28;20080;-76
2021/12/12 06:38:16;;;;;;;6.85;2.97;;;;;;;0.48;94.30;99827.72;5071818;28;20031;-77
2021/12/12 06:40:43;;;;;;;8.57;3.00;;;;;;;0.38;94.69;99816.91;5067156;28;20052;-76
2021/12/12 06:43:11;;;;;;;10.00;3.30;;;;;;;0.29;95.29;99820.25;5070765;28;20028;-74
2021/12/12 06:45:37;;;;;;;6.88;3.20;;;;;;;0.27;95.39;99824.00;5075031;28;20035;-76
2021/12/12 06:48:04;;;;;;;5.72;3.25;;;;;;;0.27;96.18;99837.31;5076561;28;20111;-76
2021/12/12 06:50:30;;;;;;;5.97;2.70;;;;;;;0.31;95.94;99836.09;5074527;28;20031;-77
2021/12/12 06:52:56;;;;;;;8.75;3.70;;;;;;;0.31;96.11;99820.13;5070753;28;20921;-74
2021/12/12 06:55:22;;;;;;;8.43;4.07;;;;;;;0.35;95.94;99829.59;5065116;28;20036;-72
2021/12/12 06:57:48;;;;;;;8.07;3.85;;;;;;;0.19;96.31;99822.72;5069276;28;20048;-71
2021/12/12 07:00:19;;;;;;;7.63;3.50;;;;;;;0.32;96.43;99848.47;5070109;28;20064;-72
2021/12/12 07:02:45;;;;;;;8.98;3.40;;;;;;;0.28;96.73;99844.31;5070889;28;20085;-76
2021/12/12 07:05:15;;;;;;;9.52;3.80;;;;;;;0.09;96.66;99823.53;5068118;28;20123;-76
2021/12/12 07:07:41;;;;;;;6.32;3.58;;;;;;;0.15;97.00;99831.88;5070503;28;20036;-77
2021/12/12 07:10:08;;;;;;;6.90;3.30;;;;;;;0.18;96.90;99839.69;5074084;28;20531;-78
2021/12/12 07:12:34;;;;;;;8.65;3.45;;;;;;;0.25;96.96;99845.38;5068550;28;20046;-75
2021/12/12 07:14:59;;;;;;;6.72;3.63;;;;;;;0.16;97.12;99846.91;5071653;28;20413;-75
2021/12/12 07:17:25;;;;;;;6.13;3.60;;;;;;;0.10;97.13;99839.34;5074220;28;20029;-75
2021/12/12 07:19:51;;;;;;;8.25;4.03;;;;;;;0.18;97.06;99850.31;5069411;28;20629;-74
2021/12/12 07:22:17;;;;;;;6.47;3.60;;;;;;;0.13;96.99;99836.50;5070982;28;20036;-74
2021/12/12 07:24:43;;;;;;;6.85;4.28;;;;;;;0.22;96.79;99851.78;5073999;28;20035;-74
2021/12/12 07:27:09;;;;;;;10.50;4.57;;;;;;;0.13;97.39;99840.94;5071868;28;20111;-73
2021/12/12 07:29:35;;;;;;;8.38;4.82;;;;;;;0.19;98.06;99841.38;5071626;28;20040;-73
2021/12/12 07:32:02;;;;;;;10.32;4.32;;;;;;;0.25;97.76;99849.88;5072173;28;20037;-72
2021/12/12 07:34:29;;;;;;;8.77;4.50;;;;;;;0.27;97.42;99856.78;5069169;28;20458;-73
2021/12/12 07:36:59;;;;;;;8.52;3.45;;;;;;;0.38;96.87;99850.66;5069502;28;20024;-73
2021/12/12 07:39:27;;;;;;;6.75;4.53;;;;;;;0.44;96.58;99852.84;5069944;28;20131;-73
2021/12/12 07:41:55;;;;;;;9.18;4.38;;;;;;;0.41;96.39;99856.59;5072418;28;20039;-72
2021/12/12 07:44:24;;;;;;;10.25;3.95;;;;;;;0.47;95.99;99860.63;5071894;28;20028;-72
2021/12/12 07:46:51;;;;;;;8.52;4.63;;;;;;;0.57;95.41;99848.31;5072311;28;20472;-73
2021/12/12 07:49:28;;;;;;;7.05;4.15;;;;;;;0.58;95.16;99852.72;5074023;28;20032;-73
2021/12/12 07:51:54;;;;;;;6.78;3.85;;;;;;;0.61;94.56;99840.97;5064888;28;20055;-72
2021/12/12 07:54:20;;;;;;;9.80;4.28;;;;;;;0.77;94.82;99851.34;5062603;28;20082;-75
2021/12/12 07:56:46;;;;;;;7.97;4.13;;;;;;;0.85;94.14;99843.63;5057881;28;20473;-75
2021/12/12 07:59:14;;;;;;;9.63;5.45;;;;;;;0.84;94.33;99847.25;5072975;28;20386;-76
2021/12/12 08:01:43;;;;;;;7.90;4.72;;;;;;;0.98;93.14;99849.72;5067471;28;20020;-71
2021/12/12 08:04:10;;;;;;;;;;;;;;;1.14;92.33;99853.88;5074459;28;20028;-71
2021/12/12 08:06:36;;;;;;;7.45;4.00;;;;;;;1.22;92.09;99854.97;5070158;28;19912;-74
2021/12/12 08:09:03;;;;;;;7.30;3.67;;;;;;;1.33;90.78;99862.13;5072588;28;20386;-74
2021/12/12 08:11:32;;;;;;;9.95;3.75;;;;;;;1.39;90.26;99858.16;5072717;28;20024;-71
2021/12/12 08:13:58;;;;;;;7.22;4.10;;;;;;;1.60;89.42;99850.28;5058092;28;20056;-71
2021/12/12 08:16:24;;;;;;;6.07;3.45;;;;;;;1.65;88.18;99830.31;5063435;28;20031;-74
2021/12/12 08:18:49;;;;;;;8.27;4.45;;;;;;;2.11;86.33;99841.78;5069057;28;20382;-72
2021/12/12 08:21:16;;;;;;;6.95;3.83;;;;;;;2.43;84.61;99863.19;5073176;28;20023;-73
2021/12/12 08:23:42;;;;;;;8.27;3.85;;;;;;;2.63;82.67;99867.75;5070441;28;20024;-74
2021/12/12 08:26:10;;;;;;;8.18;3.72;;;;;;;2.70;83.10;99848.53;5069591;28;20025;-73
2021/12/12 08:28:36;;;;;;;7.95;3.75;;;;;;;2.75;81.82;99852.56;5080224;28;20040;-77
2021/12/12 08:31:02;;;;;;;6.13;3.72;;;;;;;3.06;80.58;99863.31;5068633;28;20070;-74
2021/12/12 08:33:29;;;;;;;7.82;3.72;;;;;;;3.27;78.89;99860.66;5069261;28;20495;-74
2021/12/12 08:35:55;;;;;;;7.63;3.78;;;;;;;3.05;79.33;99849.13;5064904;28;20070;-74
2021/12/12 08:38:21;;;;;;;6.68;3.88;;;;;;;3.08;79.26;99858.72;5073530;28;20028;-75
2021/12/12 08:40:52;;;;;;;7.43;3.75;;;;;;;2.75;80.21;99841.00;5073369;28;20099;-74
2021/12/12 08:43:21;;;;;;;9.70;4.47;;;;;;;2.82;80.67;99867.06;5071013;28;20481;-74
2021/12/12 08:45:49;;;;;;;;;;;;;;;2.70;81.65;99872.59;5071573;28;20119;-75
2021/12/12 08:48:17;;;;;;;7.25;3.17;;;;;;;2.71;81.06;99875.16;5070328;28;19919;-77
2021/12/12 08:50:44;;;;;;;5.07;3.30;;;;;;;2.78;82.46;99873.66;5071525;28;20033;-74
2021/12/12 08:53:10;;;;;;;8.75;3.30;;;;;;;2.70;81.43;99860.09;5070252;28;20462;-76
2021/12/12 08:55:43;;;;;;;7.43;3.97;;;;;;;2.80;81.43;99878.88;5067911;28;20055;-72
2021/12/12 08:58:14;;;;;;;6.90;4.38;;;;;;;2.86;81.18;99854.31;5071240;28;20394;-75
2021/12/12 09:00:55;;;;;;;8.82;3.63;;;;;;;3.01;80.46;99863.75;5071627;28;20024;-73
2021/12/12 09:03:26;;;;;;;6.38;3.35;;;;;;;3.20;79.82;99865.69;5058538;28;20048;-73
2021/12/12 09:05:53;;;;;;;5.15;3.20;;;;;;;3.28;79.34;99863.22;5072125;28;20134;-73
2021/12/12 09:08:31;;;;;;;5.60;3.60;;;;;;;3.39;78.52;99864.97;5064978;28;20029;-75
2021/12/12 09:11:16;;;;;;;6.00;3.83;;;;;;;3.77;77.59;99870.66;5072781;28;20055;-76
2021/12/12 09:13:55;;;;;;;8.55;3.22;;;;;;;3.82;76.10;99879.97;5072746;28;20044;-76
2021/12/12 09:16:36;;;;;;;5.68;2.75;;;;;;;3.74;76.50;99875.28;5072478;28;20163;-74
2021/12/12 09:19:13;;;;;;;5.43;3.17;;;;;;;3.84;77.03;99864.66;5077217;28;20032;-74
2021/12/12 09:21:51;;;;;;;7.20;3.85;;;;;;;4.05;75.41;99882.50;5071372;28;20442;-73
2021/12/12 09:24:31;;;;;;;6.05;3.42;;;;;;;4.25;74.78;99883.41;5088694;28;20028;-75
2021/12/12 09:27:05;;;;;;;5.50;3.40;;;;;;;4.41;73.46;99870.34;5081528;28;20036;-74
2021/12/12 09:29:43;;;;;;;4.90;3.10;;;;;;;4.88;72.65;99867.03;5067370;28;20493;-74
2021/12/12 09:32:13;;;;;;;6.47;3.47;;;;;;;5.31;69.80;99871.91;5068932;28;20032;-75
2021/12/12 09:34:41;;;;;;;6.47;3.33;;;;;;;5.66;68.83;99875.84;5072514;28;20029;-75
2021/12/12 09:37:41;;;;;;;6.45;3.00;;;;;;;5.49;68.70;99870.19;5078157;28;20044;-75
2021/12/12 09:40:18;;;;;;;5.13;2.90;;;;;;;5.74;67.48;99856.28;5052247;28;20120;-75
2021/12/12 09:42:58;;;;;;;6.22;3.22;;;;;;;6.21;66.19;99859.81;5070260;28;20492;-76
2021/12/12 09:45:36;;;;;;;5.55;3.20;;;;;;;6.91;63.56;99862.72;5082579;28;20012;-75
2021/12/12 09:51:42;;;;;;;3.65;2.67;;;;;;;7.24;60.94;99834.25;5081633;28;20086;-75
2021/12/12 09:54:26;;;;;;;4.38;2.42;;;;;;;6.55;63.46;99843.06;5082517;28;20005;-75
2021/12/12 09:57:10;;;;;;;5.57;2.40;;;;;;;5.52;65.11;99847.59;5081347;28;20082;-75
2021/12/12 10:00:00;;;;;;;4.75;2.70;;;;;;;5.02;68.69;99842.44;5068426;28;20437;-75
2021/12/12 10:02:41;;;;;;;3.88;2.22;;;;;;;4.82;68.89;99841.59;5067008;28;20036;-76
2021/12/12 10:05:13;;;;;;;3.70;2.30;;;;;;;4.66;70.26;99847.50;5056793;28;20098;-75
2021/12/12 10:07:55;;;;;;;4.68;2.40;;;;;;;4.37;70.90;99840.28;5061114;28;20938;-76
2021/12/12 10:10:36;;;;;;;4.72;2.53;;;;;;;4.63;71.17;99834.41;5070696;28;20515;-72
2021/12/12 10:13:13;;;;;;;4.85;2.80;;;;;;;4.57;70.53;99829.59;5072111;28;20378;-76
2021/12/12 10:15:44;;;;;;;4.10;2.40;;;;;;;4.76;71.59;99839.47;5069051;28;20028;-73
2021/12/12 10:18:29;;;;;;;4.13;2.40;;;;;;;4.91;70.78;99831.88;5071542;28;20020;-72
2021/12/12 10:21:01;;;;;;;4.32;2.70;;;;;;;4.84;70.54;99820.84;5070843;28;20025;-73
2021/12/12 10:23:46;;;;;;;4.50;2.35;;;;;;;4.90;69.54;99832.84;5075268;28;20035;-72
2021/12/12 10:26:20;;;;;;;4.18;2.40;;;;;;;4.67;70.65;99840.34;5071873;28;20436;-73
2021/12/12 10:28:56;;;;;;;3.70;2.40;;;;;;;4.64;71.43;99829.88;5068826;28;20385;-73
2021/12/12 10:31:39;;;;;;;5.20;2.53;;;;;;;4.56;71.34;99834.13;5063730;28;20052;-73
2021/12/12 10:34:10;;;;;;;4.45;2.72;;;;;;;4.97;70.92;99815.22;5069906;28;20032;-72
2021/12/12 10:36:45;;;;;;;4.65;2.65;;;;;;;5.03;70.21;99836.94;5069845;28;20039;-72
2021/12/12 10:39:21;;;;;;;3.33;2.30;;;;;;;4.84;70.64;99826.22;5065333;28;20056;-72
2021/12/12 10:41:53;;;;;;;7.13;2.97;;;;;;;4.80;70.18;99830.19;5070197;28;20025;-72
2021/12/12 10:44:29;;;;;;;5.53;2.83;;;;;;;4.54;71.33;99833.41;5076181;28;20118;-72
2021/12/12 10:46:57;;;;;;;4.05;2.38;;;;;;;4.39;72.00;99838.31;5085982;28;20614;-73
2021/12/12 10:49:29;;;;;;;5.13;3.17;;;;;;;4.59;70.85;99838.34;5073267;28;20088;-73
2021/12/12 10:52:31;;;;;;;3.40;2.22;;;;;;;4.69;71.00;99832.97;5086379;28;20024;-72
2021/12/12 10:55:20;;;;;;;6.47;2.63;;;;;;;4.57;71.57;99833.13;5032189;28;20102;-72
2021/12/12 10:58:02;;;;;;;4.40;2.50;;;;;;;4.63;72.02;99830.88;5060176;28;20322;-73
2021/12/12 11:00:33;;;;;;;3.33;2.33;;;;;;;4.84;71.49;99821.69;5072312;28;20039;-73
2021/12/12 11:03:10;;;;;;;4.72;2.55;;;;;;;4.79;71.13;99815.06;5079055;28;20405;-73
2021/12/12 11:05:44;;;;;;;4.65;2.70;;;;;;;4.89;70.90;99826.63;5072072;28;20036;-72
2021/12/12 11:08:38;;;;;;;3.47;2.33;;;;;;;4.72;70.38;99822.84;5065388;28;20094;-72
2021/12/12 11:11:12;;;;;;;4.75;2.22;;;;;;;4.83;70.61;99824.53;5073858;28;20518;-72
2021/12/12 11:13:47;;;;;;;3.47;2.03;;;;;;;5.00;69.94;99815.78;5066743;28;20039;-72
2021/12/12 11:16:44;;;;;;;7.07;2.72;;;;;;;4.88;70.21;99821.44;5071952;28;20028;-72
2021/12/12 11:19:15;;;;;;;4.65;2.28;;;;;;;4.78;69.69;99816.06;5060328;28;20040;-73
2021/12/12 11:21:46;;;;;;;4.07;2.15;;;;;;;5.08;69.26;99807.00;5071679;28;20075;-73
2021/12/12 11:24:21;;;;;;;4.43;2.35;;;;;;;4.88;68.69;99794.63;5076144;28;20163;-72
2021/12/12 11:27:03;;;;;;;4.22;2.28;;;;;;;4.93;68.65;99811.97;5055494;28;20100;-72
2021/12/12 11:29:37;;;;;;;4.05;1.95;;;;;;;4.94;68.92;99815.50;5062130;28;20028;-72
2021/12/12 11:32:10;;;;;;;5.97;1.83;;;;;;;4.95;68.46;99812.69;5067878;28;20032;-72
2021/12/12 11:34:36;;;;;;;3.83;2.28;;;;;;;4.84;68.31;99804.75;5065252;28;20078;-72
2021/12/12 11:37:13;;;;;;;5.65;2.28;;;;;;;5.09;68.88;99803.34;5072907;28;20037;-73
2021/12/12 11:39:48;;;;;;;4.65;2.63;;;;;;;4.99;69.22;99799.81;5052464;28;20471;-72
2021/12/12 11:42:19;;;;;;;3.58;2.00;;;;;;;5.29;68.32;99798.78;5059394;28;20086;-72
2021/12/12 11:45:09;;;;;;;4.00;2.33;;;;;;;5.40;68.00;99797.78;5062402;28;20517;-72
2021/12/12 11:47:43;;;;;;;5.60;2.00;;;;;;;5.19;68.88;99798.81;5070725;28;20036;-72
2021/12/12 11:50:38;;;;;;;4.40;2.17;;;;;;;5.25;68.67;99787.50;5067517;28;20029;-72
2021/12/12 11:53:32;;;;;;;3.65;2.35;;;;;;;5.31;69.17;99779.84;5056727;28;20056;-72
2021/12/12 11:56:06;;;;;;;3.72;2.20;;;;;;;5.43;67.60;99771.47;5063991;28;20406;-72
2021/12/12 11:58:34;;;;;;;5.93;2.53;;;;;;;5.58;68.31;99779.03;5090327;28;20477;-72
2021/12/12 12:01:28;;;;;;;5.85;2.45;;;;;;;5.61;67.50;99790.34;5073222;28;20086;-72
2021/12/12 12:04:16;;;;;;;4.88;2.58;;;;;;;5.36;68.70;99783.78;5081377;28;20112;-72
2021/12/12 12:07:05;;;;;;;4.10;2.33;;;;;;;5.35;68.54;99784.78;5051867;28;20394;-72
2021/12/12 12:10:07;;;;;;;6.25;2.28;;;;;;;5.35;68.24;99754.44;5064802;28;20768;-72
2021/12/12 12:12:50;;;;;;;4.75;1.90;;;;;;;5.47;67.46;99772.88;5061576;28;20023;-72
2021/12/12 12:15:57;;;;;;;2.83;1.75;;;;;;;5.18;67.84;99766.75;5071160;28;20024;-71
2021/12/12 12:18:41;;;;;;;7.57;3.00;;;;;;;5.21;68.41;99774.50;5070449;28;20393;-71
2021/12/12 12:21:16;;;;;;;3.75;2.00;;;;;;;5.25;68.11;99759.81;5061547;28;20033;-72
2021/12/12 12:24:10;;;;;;;4.93;2.28;;;;;;;5.21;67.95;99764.66;5060364;28;20034;-72
2021/12/12 12:26:51;;;;;;;3.25;1.70;;;;;;;5.32;68.16;99779.72;5060970;28;20109;-71
2021/12/12 12:29:28;;;;;;;4.88;2.20;;;;;;;5.31;68.67;99780.69;5071532;28;20028;-72
2021/12/12 12:32:31;;;;;;;6.18;2.58;;;;;;;5.54;68.44;99777.66;5055708;28;20028;-71